Time;durP1;ratioP1;P1;durP2;ratioP2;P2;SDS_P1;SDS_P2;PMS_P1;PMS_P2;Temp;Humidity;BMP_temperature;BMP_pressure;BME280_temperature;BME280_humidity;BME280_pressure;Samples;Min_cycle;Max_cycle;Signal;HPM_P1;HPM_P2
2023/11/24 00:03:52;;;;;;;3.20;1.50;;;;;;;7.75;100.00;97238.92;272960;1270;22204;-86
2023/11/24 00:10:34;;;;;;;2.80;1.70;;;;;;;7.82;100.00;97222.70;273862;1270;22192;-87
2023/11/24 00:16:58;;;;;;;2.60;1.20;;;;;;;7.84;100.00;97212.33;273981;1269;22207;-88
2023/11/24 00:23:40;;;;;;;1.40;0.90;;;;;;;7.89;100.00;97202.41;272658;1269;22213;-87
2023/11/24 00:30:07;;;;;;;3.30;1.20;;;;;;;7.97;100.00;97186.64;273879;1276;22866;-87
2023/11/24 00:36:54;;;;;;;1.00;0.60;;;;;;;8.02;100.00;97180.36;272035;1269;22185;-88
2023/11/24 00:43:00;;;;;;;1.10;0.60;;;;;;;8.07;100.00;97176.35;272102;1269;22184;-90
2023/11/24 00:49:20;;;;;;;2.80;0.70;;;;;;;8.12;99.99;97169.77;272928;1269;22385;-90
2023/11/24 00:55:23;;;;;;;2.10;0.90;;;;;;;8.20;99.94;97172.36;273003;1269;22543;-90
2023/11/24 01:01:26;;;;;;;1.40;0.60;;;;;;;8.28;99.91;97165.15;272472;1269;22174;-89
2023/11/24 01:07:29;;;;;;;2.30;0.60;;;;;;;8.32;99.32;97153.50;272861;1269;24150;-86
2023/11/24 01:14:13;;;;;;;0.90;0.40;;;;;;;8.37;99.00;97148.39;272708;1269;22210;-87
2023/11/24 01:20:57;;;;;;;1.70;0.40;;;;;;;8.41;99.05;97139.40;273357;1264;22148;-87
2023/11/24 01:27:42;;;;;;;1.10;0.40;;;;;;;8.44;98.90;97136.25;273744;1269;22307;-90
2023/11/24 01:34:16;;;;;;;2.50;0.80;;;;;;;8.43;98.51;97140.24;273323;1269;22409;-86
2023/11/24 01:40:18;;;;;;;0.80;0.70;;;;;;;8.45;97.99;97140.05;273174;1270;22534;-88
2023/11/24 01:46:20;;;;;;;2.00;0.70;;;;;;;8.41;98.72;97144.77;271534;1269;24124;-88
2023/11/24 01:52:26;;;;;;;1.90;0.70;;;;;;;8.21;99.61;97162.77;272591;1269;22384;-89
2023/11/24 01:58:31;;;;;;;3.40;0.80;;;;;;;8.01;100.00;97175.23;273702;1270;22215;-89
2023/11/24 02:04:33;;;;;;;2.10;0.80;;;;;;;7.85;100.00;97196.61;272256;1269;22530;-90
2023/11/24 02:18:22;;;;;;;;;;;;;;;7.30;100.00;97279.96;273902;1275;22462;-90
2023/11/24 02:32:24;;;;;;;1.20;0.80;;;;;;;6.00;100.00;97291.34;273024;1259;23616;-89
2023/11/24 02:38:26;;;;;;;2.30;0.50;;;;;;;5.63;100.00;97294.48;271979;1272;22231;-90
2023/11/24 02:44:28;;;;;;;2.20;0.40;;;;;;;5.43;100.00;97295.19;272461;1272;22211;-90
2023/11/24 02:50:30;;;;;;;1.60;0.60;;;;;;;5.27;100.00;97290.77;272335;1271;22240;-90
2023/11/24 02:56:36;;;;;;;2.30;0.80;;;;;;;5.13;100.00;97287.75;272092;1272;22370;-89
2023/11/24 03:02:46;;;;;;;1.10;0.50;;;;;;;4.99;100.00;97276.52;272015;1272;22228;-89
2023/11/24 03:08:50;;;;;;;1.20;0.50;;;;;;;4.90;100.00;97269.89;271974;1272;22427;-90
2023/11/24 03:14:53;;;;;;;0.50;0.30;;;;;;;4.80;100.00;97273.17;272792;1271;22278;-88
2023/11/24 03:20:59;;;;;;;2.10;0.80;;;;;;;4.73;100.00;97296.59;271928;1272;22320;-90
2023/11/24 03:27:01;;;;;;;1.80;0.80;;;;;;;4.68;100.00;97280.45;272207;1270;22387;-90
2023/11/24 03:33:04;;;;;;;1.00;0.50;;;;;;;4.62;100.00;97246.80;272201;1272;23154;-91
2023/11/24 03:39:22;;;;;;;1.70;0.70;;;;;;;4.58;100.00;97231.13;272623;1268;22880;-88
2023/11/24 03:45:50;;;;;;;3.00;0.70;;;;;;;4.57;100.00;97239.88;272228;1271;22984;-88
2023/11/24 03:51:52;;;;;;;0.70;0.40;;;;;;;4.62;100.00;97242.15;271507;1271;22535;-90
2023/11/24 03:57:54;;;;;;;1.00;0.70;;;;;;;4.67;100.00;97218.02;270558;1271;22455;-88
2023/11/24 04:03:58;;;;;;;3.70;1.20;;;;;;;4.71;100.00;97203.63;271548;1272;22553;-90
2023/11/24 04:10:00;;;;;;;1.50;0.90;;;;;;;4.79;100.00;97202.67;269903;1272;22258;-90
2023/11/24 04:16:04;;;;;;;2.40;0.90;;;;;;;4.83;100.00;97200.15;271332;1272;22418;-87
2023/11/24 04:22:06;;;;;;;3.30;0.80;;;;;;;4.85;100.00;97185.20;270981;1272;24303;-89
2023/11/24 04:28:10;;;;;;;2.00;0.80;;;;;;;4.86;100.00;97175.98;270687;1271;22554;-89
2023/11/24 04:34:12;;;;;;;4.70;1.30;;;;;;;4.87;100.00;97162.50;272156;1272;22434;-89
2023/11/24 04:40:18;;;;;;;2.60;0.90;;;;;;;4.91;100.00;97160.90;272370;1259;23225;-91
2023/11/24 04:46:20;;;;;;;3.70;1.10;;;;;;;4.93;100.00;97150.46;272285;1271;22880;-89
2023/11/24 04:52:23;;;;;;;1.70;0.80;;;;;;;4.94;100.00;97137.91;272038;1271;212655;-92
2023/11/24 04:58:41;;;;;;;2.20;0.90;;;;;;;4.95;100.00;97150.77;272113;1271;24192;-88
2023/11/24 05:04:47;;;;;;;4.00;1.30;;;;;;;4.95;100.00;97133.33;272097;1272;22365;-90
2023/11/24 05:10:52;;;;;;;3.90;1.70;;;;;;;4.95;100.00;97134.03;272402;1271;22345;-88
2023/11/24 05:16:59;;;;;;;6.20;0.80;;;;;;;4.94;100.00;97103.42;272338;1272;23828;-90
2023/11/24 05:23:01;;;;;;;4.30;1.60;;;;;;;4.95;100.00;97096.39;272108;1272;22427;-89
2023/11/24 05:29:04;;;;;;;3.00;1.40;;;;;;;4.94;100.00;97130.77;271856;1272;22428;-89
2023/11/24 05:35:06;;;;;;;3.30;1.40;;;;;;;4.96;100.00;97138.05;272288;1271;23699;-89
2023/11/24 05:41:08;;;;;;;3.00;0.90;;;;;;;4.97;100.00;97137.13;272225;1271;23593;-89
2023/11/24 05:47:10;;;;;;;1.50;0.50;;;;;;;4.94;100.00;97158.82;272331;1271;22497;-91
2023/11/24 05:53:12;;;;;;;4.10;0.80;;;;;;;4.92;100.00;97168.26;272300;1271;22292;-89
2023/11/24 05:59:14;;;;;;;3.20;1.20;;;;;;;4.87;100.00;97188.21;271810;1271;22601;-87
2023/11/24 06:05:23;;;;;;;1.80;0.70;;;;;;;4.78;100.00;97200.59;272060;1272;22389;-87
2023/11/24 06:11:34;;;;;;;4.90;1.20;;;;;;;4.63;100.00;97193.68;272192;1271;22885;-87
2023/11/24 06:17:38;;;;;;;4.00;0.90;;;;;;;4.47;100.00;97183.45;272325;1271;22363;-89
2023/11/24 06:23:40;;;;;;;5.60;1.60;;;;;;;4.27;100.00;97214.98;272109;1272;22420;-87
2023/11/24 06:29:42;;;;;;;2.10;0.90;;;;;;;4.12;100.00;97232.73;272861;1272;22547;-88
2023/11/24 06:35:44;;;;;;;5.60;1.20;;;;;;;3.97;100.00;97234.77;272093;1272;22437;-88
2023/11/24 06:41:48;;;;;;;9.70;1.50;;;;;;;3.78;100.00;97226.86;271637;1272;23399;-87
2023/11/24 06:47:51;;;;;;;5.30;1.30;;;;;;;3.55;100.00;97227.02;272374;1272;23922;-90
2023/11/24 06:54:00;;;;;;;8.30;1.50;;;;;;;3.38;100.00;97254.28;272279;1272;22454;-89
2023/11/24 07:00:07;;;;;;;3.90;1.20;;;;;;;3.20;100.00;97273.77;272753;1277;22222;-88
2023/11/24 07:06:09;;;;;;;5.60;1.60;;;;;;;3.08;100.00;97277.55;271165;1272;22203;-87
2023/11/24 07:12:17;;;;;;;7.40;1.90;;;;;;;3.01;100.00;97280.48;271616;1271;22193;-88
2023/11/24 07:18:23;;;;;;;7.40;2.00;;;;;;;2.97;100.00;97285.92;270885;1267;22503;-90
2023/11/24 07:24:28;;;;;;;5.10;1.60;;;;;;;2.95;100.00;97283.41;271291;1272;22367;-89
2023/11/24 07:30:34;;;;;;;9.00;3.40;;;;;;;3.06;100.00;97296.98;273070;1273;22203;-88
2023/11/24 07:36:37;;;;;;;4.80;2.40;;;;;;;3.30;100.00;97295.98;272904;1272;22991;-87
2023/11/24 07:42:43;;;;;;;10.80;3.50;;;;;;;3.42;100.00;97280.59;273009;1275;22185;-88
2023/11/24 07:48:47;;;;;;;7.10;3.00;;;;;;;3.65;100.00;97275.45;273017;1274;22183;-89
2023/11/24 07:55:02;;;;;;;9.60;3.30;;;;;;;4.05;100.00;97267.24;271122;1272;23045;-88
2023/11/24 08:01:05;;;;;;;8.10;2.80;;;;;;;4.52;100.00;97262.20;272402;1272;24193;-89
2023/11/24 08:07:07;;;;;;;13.90;2.70;;;;;;;4.89;100.00;97249.90;271561;1272;22366;-89
2023/11/24 08:13:10;;;;;;;10.70;2.50;;;;;;;5.27;100.00;97249.38;273342;1272;22901;-88
2023/11/24 08:19:17;;;;;;;13.10;3.00;;;;;;;5.66;100.00;97248.42;272029;1272;22923;-88
2023/11/24 08:25:19;;;;;;;9.60;3.30;;;;;;;6.18;100.00;97247.05;272484;1272;22290;-90
2023/11/24 08:31:21;;;;;;;9.70;3.40;;;;;;;6.68;100.00;97253.63;272351;1271;22897;-88
2023/11/24 08:37:23;;;;;;;8.60;3.40;;;;;;;6.34;100.00;97252.08;271497;1272;24041;-89
2023/11/24 08:43:31;;;;;;;13.20;3.00;;;;;;;5.81;100.00;97262.04;272626;1272;22211;-89
2023/11/24 08:49:33;;;;;;;10.20;2.80;;;;;;;5.69;100.00;97256.49;272955;1274;22210;-88
2023/11/24 08:55:36;;;;;;;11.50;2.60;;;;;;;6.35;100.00;97246.88;272471;1272;22347;-89
2023/11/24 09:01:40;;;;;;;7.30;2.40;;;;;;;7.17;100.00;97237.72;272353;1272;22720;-89
2023/11/24 09:07:42;;;;;;;11.00;2.10;;;;;;;7.28;100.00;97219.33;273208;1272;23017;-88
2023/11/24 09:13:44;;;;;;;13.20;2.80;;;;;;;7.02;100.00;97208.70;272518;1272;22222;-88
2023/11/24 09:19:46;;;;;;;9.40;2.70;;;;;;;6.98;100.00;97201.88;272477;1272;23418;-90
2023/11/24 09:25:51;;;;;;;11.30;2.60;;;;;;;7.17;100.00;97193.26;272689;1269;24098;-89
2023/11/24 09:31:53;;;;;;;11.70;2.80;;;;;;;7.66;99.97;97183.95;272630;1272;22566;-89
2023/11/24 09:37:58;;;;;;;11.90;2.70;;;;;;;8.13;98.56;97183.23;272947;1272;23368;-89
2023/11/24 09:44:00;;;;;;;10.60;2.70;;;;;;;8.24;96.99;97183.48;272546;1271;22465;-91
2023/11/24 09:50:02;;;;;;;11.50;2.40;;;;;;;8.30;96.03;97171.36;272625;1271;22397;-89
2023/11/24 09:56:09;;;;;;;7.00;2.10;;;;;;;8.39;95.24;97159.66;272515;1272;22402;-88
2023/11/24 10:02:17;;;;;;;14.50;3.00;;;;;;;8.26;94.50;97144.04;272427;1272;23355;-89
2023/11/24 10:08:19;;;;;;;7.60;2.20;;;;;;;8.17;94.16;97137.02;272467;1272;22422;-90
2023/11/24 10:14:24;;;;;;;7.70;2.50;;;;;;;8.09;93.58;97132.20;272691;1272;22496;-89
2023/11/24 10:20:32;;;;;;;10.10;2.50;;;;;;;7.85;92.82;97135.89;271396;1272;23354;-88
2023/11/24 10:26:34;;;;;;;9.40;2.40;;;;;;;7.57;92.52;97110.05;272659;1271;22672;-90
2023/11/24 10:32:37;;;;;;;11.00;2.20;;;;;;;7.49;91.65;97081.86;272560;1272;23173;-87
2023/11/24 10:38:40;;;;;;;6.40;1.90;;;;;;;7.47;91.22;97064.14;272505;1272;22328;-87
2023/11/24 10:44:43;;;;;;;9.20;2.10;;;;;;;7.45;90.53;97062.67;272354;1272;23009;-91
2023/11/24 10:51:10;;;;;;;8.10;2.30;;;;;;;7.23;89.39;97048.22;272563;1272;22171;-87
2023/11/24 10:57:12;;;;;;;10.10;2.10;;;;;;;7.12;89.32;97053.27;272497;1272;22718;-88
2023/11/24 11:03:16;;;;;;;8.10;2.30;;;;;;;7.06;89.40;97039.95;272586;1272;22444;-88
2023/11/24 11:09:29;;;;;;;7.80;1.80;;;;;;;6.80;88.75;97022.05;272451;1272;22416;-87
2023/11/24 11:16:21;;;;;;;11.90;2.80;;;;;;;6.65;88.02;97008.16;272561;1272;22372;-88
2023/11/24 11:22:28;;;;;;;6.20;2.40;;;;;;;6.75;87.95;97002.90;272607;1272;23036;-88
2023/11/24 11:28:41;;;;;;;13.70;2.60;;;;;;;6.93;87.56;96998.98;272416;1272;22335;-88
2023/11/24 11:35:10;;;;;;;7.20;1.90;;;;;;;6.96;85.45;96983.11;272272;1268;22195;-89
2023/11/24 11:41:36;;;;;;;10.00;2.10;;;;;;;6.89;85.40;96982.98;271547;1272;22663;-89
2023/11/24 11:47:49;;;;;;;6.60;1.90;;;;;;;6.83;84.42;96985.14;272131;1272;22405;-87
2023/11/24 11:53:51;;;;;;;8.10;2.20;;;;;;;6.67;83.89;96981.81;273196;1272;22200;-89
2023/11/24 11:59:54;;;;;;;9.00;1.90;;;;;;;6.53;84.32;96991.67;272013;1272;22348;-89
2023/11/24 12:05:58;;;;;;;4.90;1.70;;;;;;;6.46;84.70;96991.63;272115;1271;22987;-88
2023/11/24 12:12:04;;;;;;;4.80;2.10;;;;;;;6.36;85.14;96985.54;272373;1272;22691;-90
2023/11/24 12:18:06;;;;;;;8.20;2.10;;;;;;;6.25;85.59;96975.89;271943;1271;22359;-88
2023/11/24 12:24:09;;;;;;;5.50;1.80;;;;;;;6.24;85.74;96960.45;271517;1271;24229;-89
2023/11/24 12:30:12;;;;;;;6.70;2.40;;;;;;;6.30;85.81;96949.79;271972;1272;22394;-91
2023/11/24 12:36:14;;;;;;;8.10;2.60;;;;;;;6.46;85.96;96961.65;272458;1272;22304;-89
2023/11/24 12:42:16;;;;;;;6.20;2.00;;;;;;;6.52;85.47;96968.67;272330;1272;23284;-88
2023/11/24 12:48:19;;;;;;;8.50;2.30;;;;;;;6.52;85.23;96963.33;272523;1272;23213;-89
2023/11/24 12:54:21;;;;;;;5.20;1.60;;;;;;;6.50;84.57;96959.45;272321;1272;22408;-90
2023/11/24 13:00:26;;;;;;;6.90;1.80;;;;;;;6.41;83.93;96961.69;270916;1272;22352;-88
2023/11/24 13:06:28;;;;;;;4.20;1.10;;;;;;;6.17;82.14;96960.31;272108;1271;22446;-88
2023/11/24 13:12:31;;;;;;;3.50;1.30;;;;;;;5.97;82.15;96950.85;272138;1270;22395;-89
2023/11/24 13:18:33;;;;;;;5.90;1.20;;;;;;;5.79;81.72;96948.09;272276;1271;22226;-89
2023/11/24 13:24:36;;;;;;;3.90;1.60;;;;;;;5.63;81.14;96949.67;272236;1272;23379;-88
2023/11/24 13:30:38;;;;;;;4.10;1.40;;;;;;;5.53;81.55;96952.95;272240;1272;23318;-89
2023/11/24 13:44:34;;;;;;;4.20;1.50;;;;;;;5.30;81.35;96961.81;272965;1279;22341;-89
2023/11/24 13:50:37;;;;;;;5.00;1.70;;;;;;;5.18;81.99;96973.29;272299;1272;22400;-88
2023/11/24 13:56:41;;;;;;;5.00;1.90;;;;;;;5.08;83.01;96980.10;272195;1272;23143;-89
2023/11/24 14:02:45;;;;;;;5.20;2.40;;;;;;;5.01;83.79;96976.85;272067;1263;23012;-88
2023/11/24 14:08:47;;;;;;;7.70;1.90;;;;;;;4.92;83.74;96978.23;272321;1272;23893;-88
2023/11/24 14:14:49;;;;;;;3.60;1.70;;;;;;;4.77;83.89;96980.08;272422;1261;23631;-88
2023/11/24 14:20:51;;;;;;;6.50;2.20;;;;;;;4.61;83.47;96982.99;271865;1272;23775;-89
2023/11/24 14:26:54;;;;;;;6.90;2.50;;;;;;;4.51;83.87;96981.96;272299;1263;22447;-89
2023/11/24 14:32:59;;;;;;;7.00;2.40;;;;;;;4.42;84.13;96987.59;272300;1270;22336;-88
2023/11/24 14:39:02;;;;;;;7.00;3.20;;;;;;;4.32;84.46;96983.45;272473;1272;23549;-88
2023/11/24 14:45:05;;;;;;;10.60;3.20;;;;;;;4.25;85.04;96988.39;272360;1271;22437;-88
2023/11/24 14:51:10;;;;;;;11.00;3.40;;;;;;;4.18;85.53;96986.88;272505;1272;22382;-88
2023/11/24 14:57:13;;;;;;;9.30;3.30;;;;;;;4.06;85.46;96983.44;270160;1271;22761;-88
2023/11/24 15:03:15;;;;;;;11.90;4.30;;;;;;;3.95;86.14;96985.85;271302;1272;22418;-88
2023/11/24 15:09:18;;;;;;;10.30;4.70;;;;;;;3.84;86.64;96985.56;271099;1272;23618;-89
2023/11/24 15:15:20;;;;;;;9.60;4.50;;;;;;;3.71;87.04;96974.20;271403;1271;22671;-89
2023/11/24 15:21:30;;;;;;;12.20;5.10;;;;;;;3.60;87.58;96968.17;270108;1272;22583;-88
2023/11/24 15:27:32;;;;;;;11.80;4.50;;;;;;;3.52;88.54;96968.30;272359;1272;22427;-89
2023/11/24 15:33:34;;;;;;;12.20;5.30;;;;;;;3.46;89.09;96964.23;272121;1264;23861;-88
2023/11/24 15:39:44;;;;;;;14.00;5.90;;;;;;;3.45;89.80;96956.34;271074;1257;22231;-87
2023/11/24 15:45:54;;;;;;;14.30;6.40;;;;;;;3.45;90.45;96944.90;272293;1272;23415;-89
2023/11/24 15:51:56;;;;;;;13.20;5.50;;;;;;;3.46;90.69;96949.70;271991;1272;22197;-87
2023/11/24 15:58:02;;;;;;;16.30;5.60;;;;;;;3.47;90.61;96961.77;271437;1271;24388;-88
2023/11/24 16:04:33;;;;;;;3.80;1.90;;;;;;;3.25;90.20;96994.52;270828;1272;22360;-88
2023/11/24 16:10:42;;;;;;;6.20;3.00;;;;;;;2.28;90.59;96996.67;270805;1271;22326;-88
2023/11/24 16:16:44;;;;;;;7.90;3.30;;;;;;;1.78;92.47;96999.48;272283;1272;23324;-88
2023/11/24 16:22:46;;;;;;;8.30;2.90;;;;;;;1.60;93.70;97013.02;272515;1271;22364;-88
2023/11/24 16:28:48;;;;;;;10.20;4.00;;;;;;;1.47;93.94;97017.91;271822;1272;22379;-88
2023/11/24 16:34:50;;;;;;;8.40;4.10;;;;;;;1.31;94.96;97011.67;271391;1272;23859;-89
2023/11/24 16:40:55;;;;;;;10.80;5.20;;;;;;;1.26;96.44;97025.92;271559;1272;23261;-89
2023/11/24 16:46:59;;;;;;;15.30;5.40;;;;;;;1.29;97.11;97023.43;271569;1271;23141;-89
2023/11/24 16:53:04;;;;;;;8.90;4.50;;;;;;;1.29;97.41;97014.71;271861;1272;188007;-89
2023/11/24 16:59:08;;;;;;;9.80;4.60;;;;;;;1.24;97.98;97016.09;272501;1272;23062;-88
2023/11/24 17:05:10;;;;;;;9.50;4.20;;;;;;;1.19;98.44;97016.10;264772;1272;10001260;-89
2023/11/24 17:11:13;;;;;;;9.80;5.40;;;;;;;1.15;98.81;97004.32;272321;1271;22393;-90
2023/11/24 17:17:25;;;;;;;9.90;5.50;;;;;;;1.10;99.15;97001.09;272014;1271;22578;-88
2023/11/24 17:23:29;;;;;;;12.70;6.30;;;;;;;1.07;98.96;97001.73;271971;1271;23251;-88
2023/11/24 17:29:39;;;;;;;16.80;8.10;;;;;;;1.04;99.05;96993.52;271414;1272;22418;-89
2023/11/24 17:35:43;;;;;;;17.60;7.00;;;;;;;1.05;99.82;96989.69;272463;1272;23021;-89
2023/11/24 17:41:45;;;;;;;12.30;4.70;;;;;;;1.09;99.97;96997.61;272491;1270;23457;-89
2023/11/24 17:47:49;;;;;;;12.60;4.00;;;;;;;1.08;100.00;97008.45;272180;1272;22366;-89
2023/11/24 17:53:53;;;;;;;10.10;4.30;;;;;;;1.05;100.00;97010.95;272189;1271;22285;-87
2023/11/24 17:59:55;;;;;;;12.20;5.60;;;;;;;1.03;100.00;97004.90;272237;1272;22402;-88
2023/11/24 18:05:57;;;;;;;19.00;7.10;;;;;;;0.99;100.00;97006.98;272146;1271;23625;-88
2023/11/24 18:12:00;;;;;;;15.80;6.30;;;;;;;0.94;100.00;97005.07;272060;1271;22437;-87
2023/11/24 18:18:02;;;;;;;16.30;6.20;;;;;;;0.92;100.00;97001.80;271457;1272;22350;-87
2023/11/24 18:24:04;;;;;;;21.60;7.40;;;;;;;0.89;100.00;97001.05;272192;1272;22342;-88
2023/11/24 18:30:09;;;;;;;19.80;8.70;;;;;;;0.80;100.00;97000.65;272203;1272;22209;-88
2023/11/24 18:36:11;;;;;;;16.50;7.90;;;;;;;0.73;100.00;97010.17;272089;1272;23387;-87
2023/11/24 18:42:13;;;;;;;15.50;9.50;;;;;;;0.71;100.00;97009.98;272039;1272;22350;-86
2023/11/24 18:48:15;;;;;;;15.90;8.70;;;;;;;0.64;100.00;97001.45;272272;1271;22301;-87
2023/11/24 18:54:17;;;;;;;18.10;8.90;;;;;;;0.62;100.00;96997.35;272188;1272;22415;-87
2023/11/24 19:00:19;;;;;;;16.80;8.60;;;;;;;0.61;100.00;97004.70;272261;1272;22428;-86
2023/11/24 19:06:22;;;;;;;22.50;9.70;;;;;;;0.61;100.00;97015.02;272386;1272;22416;-87
2023/11/24 19:12:25;;;;;;;22.70;10.30;;;;;;;0.58;100.00;97023.91;272239;1271;23766;-87
2023/11/24 19:18:27;;;;;;;21.20;9.40;;;;;;;0.58;100.00;97034.66;272239;1272;22195;-87
2023/11/24 19:24:29;;;;;;;21.50;10.20;;;;;;;0.59;100.00;97033.53;272285;1271;22463;-86
2023/11/24 19:30:31;;;;;;;23.10;10.00;;;;;;;0.63;100.00;97029.92;272254;1270;23154;-86
2023/11/24 19:36:34;;;;;;;17.50;7.90;;;;;;;0.67;100.00;97023.23;272332;1267;23690;-86
2023/11/24 19:42:39;;;;;;;19.40;7.80;;;;;;;0.73;100.00;97015.63;272234;1271;22185;-86
2023/11/24 19:48:41;;;;;;;17.80;7.70;;;;;;;0.79;100.00;97006.04;272172;1271;23629;-88
2023/11/24 19:54:44;;;;;;;18.10;7.60;;;;;;;0.87;100.00;96997.94;272408;1269;22302;-86
2023/11/24 20:00:45;;;;;;;21.70;9.40;;;;;;;0.94;100.00;96987.13;272245;1271;22427;-88
2023/11/24 20:06:48;;;;;;;17.10;8.30;;;;;;;1.01;100.00;96991.86;272410;1272;22502;-88
2023/11/24 20:12:50;;;;;;;21.90;9.30;;;;;;;1.07;100.00;97002.58;272179;1272;23659;-88
2023/11/24 20:18:52;;;;;;;23.60;10.00;;;;;;;1.12;100.00;97000.42;272220;1271;22191;-87
2023/11/24 20:24:54;;;;;;;23.80;10.90;;;;;;;1.17;100.00;96998.11;272147;1271;22512;-87
2023/11/24 20:30:56;;;;;;;26.10;11.40;;;;;;;1.22;100.00;97000.89;271515;1272;23977;-87
2023/11/24 20:36:59;;;;;;;26.40;11.90;;;;;;;1.23;100.00;96997.36;270909;1261;23776;-87
2023/11/24 20:43:04;;;;;;;27.00;12.50;;;;;;;1.22;100.00;96990.20;271797;1271;22183;-87
2023/11/24 20:49:06;;;;;;;25.80;10.40;;;;;;;1.21;100.00;96980.70;272209;1271;22215;-88
2023/11/24 20:55:08;;;;;;;21.90;8.70;;;;;;;1.22;100.00;96974.16;272253;1272;22208;-88
2023/11/24 21:01:14;;;;;;;15.80;7.20;;;;;;;1.24;100.00;96970.95;272397;1272;22191;-87
2023/11/24 21:07:16;;;;;;;17.80;6.70;;;;;;;1.24;100.00;96968.02;272086;1269;23121;-88
2023/11/24 21:13:19;;;;;;;17.80;7.30;;;;;;;1.25;100.00;96975.14;272325;1272;22471;-87
2023/11/24 21:19:21;;;;;;;15.70;5.70;;;;;;;1.21;100.00;96978.86;272293;1262;22388;-86
2023/11/24 21:25:22;;;;;;;13.70;6.60;;;;;;;1.19;100.00;96982.45;272338;1272;23085;-87
2023/11/24 21:31:24;;;;;;;14.30;6.30;;;;;;;1.13;100.00;96974.19;272569;1272;22213;-86
2023/11/24 21:37:29;;;;;;;22.00;6.90;;;;;;;1.08;100.00;96969.65;272618;1271;22343;-86
2023/11/24 21:43:30;;;;;;;15.90;6.80;;;;;;;1.10;100.00;96967.52;272591;1271;22210;-86
2023/11/24 21:49:37;;;;;;;18.60;8.10;;;;;;;1.09;100.00;96970.67;272163;1272;22255;-87
2023/11/24 21:56:57;;;;;;;14.40;7.90;;;;;;;1.10;100.00;96972.13;272370;1273;23028;-86
2023/11/24 22:03:01;;;;;;;12.90;6.60;;;;;;;1.09;100.00;96978.29;272355;1273;22360;-86
2023/11/24 22:09:23;;;;;;;10.10;4.80;;;;;;;1.10;100.00;96980.23;272585;1273;22213;-86
2023/11/24 22:15:25;;;;;;;9.90;4.30;;;;;;;1.14;100.00;96978.75;271850;1262;23486;-87
2023/11/24 22:21:27;;;;;;;7.60;4.10;;;;;;;1.16;100.00;96977.48;271970;1273;23473;-86
2023/11/24 22:27:30;;;;;;;9.10;3.90;;;;;;;1.17;100.00;96981.19;272396;1272;23587;-86
2023/11/24 22:33:34;;;;;;;13.10;4.90;;;;;;;1.18;100.00;96978.82;272397;1272;22404;-87
2023/11/24 22:39:38;;;;;;;11.40;3.80;;;;;;;1.23;100.00;96988.19;272414;1272;22401;-87
2023/11/24 22:45:42;;;;;;;11.30;3.70;;;;;;;1.25;100.00;96990.08;271791;1272;25364;-88
2023/11/24 22:51:44;;;;;;;8.70;4.20;;;;;;;1.28;100.00;97000.60;272277;1271;22408;-87
2023/11/24 22:57:46;;;;;;;12.40;5.80;;;;;;;1.22;100.00;97009.67;272561;1272;22321;-86
2023/11/24 23:03:53;;;;;;;16.20;7.10;;;;;;;1.11;100.00;97010.65;272387;1272;22349;-87
2023/11/24 23:09:55;;;;;;;16.10;8.30;;;;;;;1.02;100.00;97003.50;271384;1272;22437;-87
2023/11/24 23:15:58;;;;;;;15.50;6.30;;;;;;;1.00;100.00;96993.07;272512;1272;22379;-88
2023/11/24 23:22:04;;;;;;;12.30;5.60;;;;;;;0.99;100.00;96983.96;272525;1271;23315;-88
2023/11/24 23:28:08;;;;;;;13.80;5.40;;;;;;;0.99;100.00;96975.42;272523;1271;22234;-87
2023/11/24 23:34:11;;;;;;;12.20;5.00;;;;;;;1.00;100.00;96966.98;272229;1271;22489;-87
2023/11/24 23:40:19;;;;;;;12.80;5.00;;;;;;;1.02;100.00;96967.86;272515;1271;22296;-88
2023/11/24 23:46:21;;;;;;;10.60;5.20;;;;;;;0.99;100.00;96967.82;272307;1272;22235;-88
2023/11/24 23:52:23;;;;;;;14.00;4.70;;;;;;;0.97;100.00;96966.24;272485;1272;22241;-88
2023/11/24 23:58:27;;;;;;;10.50;4.50;;;;;;;0.99;100.00;96966.35;272470;1258;22203;-87
